sensor_id;sensor_type;location;lat;lon;timestamp;pressure;altitude;pressure_sealevel;temperature;humidity
80397;BME280;69721;55.894;-3.052;2024-02-21T00:02:10;100696.58;;;7.71;46.64
80397;BME280;69721;55.894;-3.052;2024-02-21T00:04:36;100685.80;;;9.10;44.75
80397;BME280;69721;55.894;-3.052;2024-02-21T00:07:02;100695.63;;;8.35;45.71
80397;BME280;69721;55.894;-3.052;2024-02-21T00:09:28;100692.57;;;7.77;46.74
80397;BME280;69721;55.894;-3.052;2024-02-21T00:11:53;100682.36;;;7.33;48.40
80397;BME280;69721;55.894;-3.052;2024-02-21T00:14:18;100679.93;;;8.16;47.42
80397;BME280;69721;55.894;-3.052;2024-02-21T00:16:44;100678.52;;;8.14;46.88
80397;BME280;69721;55.894;-3.052;2024-02-21T00:19:09;100675.91;;;8.12;46.91
80397;BME280;69721;55.894;-3.052;2024-02-21T00:21:35;100669.02;;;6.59;50.09
80397;BME280;69721;55.894;-3.052;2024-02-21T00:24:00;100660.89;;;6.31;50.94
80397;BME280;69721;55.894;-3.052;2024-02-21T00:26:26;100644.99;;;6.82;50.44
80397;BME280;69721;55.894;-3.052;2024-02-21T00:28:50;100640.39;;;6.98;49.64
80397;BME280;69721;55.894;-3.052;2024-02-21T00:31:16;100643.28;;;6.28;51.01
80397;BME280;69721;55.894;-3.052;2024-02-21T00:33:42;100642.91;;;7.25;49.06
80397;BME280;69721;55.894;-3.052;2024-02-21T00:36:07;100632.04;;;6.48;50.96
80397;BME280;69721;55.894;-3.052;2024-02-21T00:38:33;100622.49;;;6.63;50.49
80397;BME280;69721;55.894;-3.052;2024-02-21T00:40:58;100622.77;;;7.85;48.47
80397;BME280;69721;55.894;-3.052;2024-02-21T00:43:24;100619.62;;;8.61;46.31
80397;BME280;69721;55.894;-3.052;2024-02-21T00:45:49;100623.84;;;9.00;45.53
80397;BME280;69721;55.894;-3.052;2024-02-21T00:48:15;100623.88;;;9.27;44.24
80397;BME280;69721;55.894;-3.052;2024-02-21T00:50:40;100620.90;;;9.42;43.34
80397;BME280;69721;55.894;-3.052;2024-02-21T00:53:06;100613.34;;;9.20;44.11
80397;BME280;69721;55.894;-3.052;2024-02-21T00:55:31;100613.98;;;9.50;42.88
80397;BME280;69721;55.894;-3.052;2024-02-21T00:57:57;100616.97;;;9.54;42.92
80397;BME280;69721;55.894;-3.052;2024-02-21T01:00:22;100610.11;;;8.24;43.89
80397;BME280;69721;55.894;-3.052;2024-02-21T01:02:49;100595.95;;;8.63;43.74
80397;BME280;69721;55.894;-3.052;2024-02-21T01:05:14;100584.02;;;9.28;43.22
80397;BME280;69721;55.894;-3.052;2024-02-21T01:07:40;100576.67;;;9.44;42.21
80397;BME280;69721;55.894;-3.052;2024-02-21T01:10:07;100562.27;;;9.28;41.97
80397;BME280;69721;55.894;-3.052;2024-02-21T01:12:31;100557.25;;;9.58;42.15
80397;BME280;69721;55.894;-3.052;2024-02-21T01:14:56;100552.18;;;9.09;42.77
80397;BME280;69721;55.894;-3.052;2024-02-21T01:17:22;100556.79;;;9.06;43.04
80397;BME280;69721;55.894;-3.052;2024-02-21T01:19:48;100564.17;;;8.32;44.22
80397;BME280;69721;55.894;-3.052;2024-02-21T01:22:13;100575.73;;;8.38;44.66
80397;BME280;69721;55.894;-3.052;2024-02-21T01:24:39;100577.42;;;8.11;44.87
80397;BME280;69721;55.894;-3.052;2024-02-21T01:27:04;100576.18;;;8.30;44.41
80397;BME280;69721;55.894;-3.052;2024-02-21T01:29:30;100580.48;;;7.79;45.73
80397;BME280;69721;55.894;-3.052;2024-02-21T01:31:56;100577.44;;;8.17;45.83
80397;BME280;69721;55.894;-3.052;2024-02-21T01:34:21;100575.96;;;7.02;47.53
80397;BME280;69721;55.894;-3.052;2024-02-21T01:36:47;100575.40;;;6.39;48.26
80397;BME280;69721;55.894;-3.052;2024-02-21T01:39:12;100567.67;;;4.43;52.28
80397;BME280;69721;55.894;-3.052;2024-02-21T01:41:38;100553.56;;;5.92;49.47
80397;BME280;69721;55.894;-3.052;2024-02-21T01:44:04;100554.56;;;6.64;48.47
80397;BME280;69721;55.894;-3.052;2024-02-21T01:46:29;100541.96;;;7.99;45.68
80397;BME280;69721;55.894;-3.052;2024-02-21T01:48:55;100547.54;;;7.79;46.01
80397;BME280;69721;55.894;-3.052;2024-02-21T01:51:20;100539.36;;;7.16;46.87
80397;BME280;69721;55.894;-3.052;2024-02-21T01:53:46;100520.87;;;6.75;47.46
80397;BME280;69721;55.894;-3.052;2024-02-21T01:56:12;100515.41;;;6.93;47.55
80397;BME280;69721;55.894;-3.052;2024-02-21T01:58:40;100521.20;;;7.41;46.42
80397;BME280;69721;55.894;-3.052;2024-02-21T02:01:03;100511.25;;;6.58;46.96
80397;BME280;69721;55.894;-3.052;2024-02-21T02:03:28;100498.22;;;8.27;44.45
80397;BME280;69721;55.894;-3.052;2024-02-21T02:05:53;100492.41;;;8.32;43.46
80397;BME280;69721;55.894;-3.052;2024-02-21T02:08:19;100489.24;;;8.24;43.76
80397;BME280;69721;55.894;-3.052;2024-02-21T02:10:45;100488.65;;;9.19;41.53
80397;BME280;69721;55.894;-3.052;2024-02-21T02:13:10;100488.97;;;9.20;41.05
80397;BME280;69721;55.894;-3.052;2024-02-21T02:15:39;100481.67;;;8.63;41.73
80397;BME280;69721;55.894;-3.052;2024-02-21T02:18:01;100458.00;;;8.96;40.77
80397;BME280;69721;55.894;-3.052;2024-02-21T02:20:26;100441.12;;;9.44;40.29
80397;BME280;69721;55.894;-3.052;2024-02-21T02:22:52;100432.45;;;9.31;39.76
80397;BME280;69721;55.894;-3.052;2024-02-21T02:25:17;100416.57;;;9.63;39.52
80397;BME280;69721;55.894;-3.052;2024-02-21T02:27:43;100412.70;;;9.22;40.29
80397;BME280;69721;55.894;-3.052;2024-02-21T02:30:10;100399.92;;;9.60;39.88
80397;BME280;69721;55.894;-3.052;2024-02-21T02:32:34;100397.51;;;8.96;40.93
80397;BME280;69721;55.894;-3.052;2024-02-21T02:34:59;100392.62;;;9.39;40.33
80397;BME280;69721;55.894;-3.052;2024-02-21T02:37:25;100400.51;;;8.86;40.22
80397;BME280;69721;55.894;-3.052;2024-02-21T02:39:50;100403.06;;;8.54;40.85
80397;BME280;69721;55.894;-3.052;2024-02-21T02:42:16;100393.74;;;8.76;40.64
80397;BME280;69721;55.894;-3.052;2024-02-21T02:44:41;100385.96;;;8.99;40.01
80397;BME280;69721;55.894;-3.052;2024-02-21T02:47:08;100374.52;;;8.76;40.28
80397;BME280;69721;55.894;-3.052;2024-02-21T02:49:32;100356.07;;;8.88;39.84
80397;BME280;69721;55.894;-3.052;2024-02-21T02:51:58;100335.32;;;9.26;39.49
80397;BME280;69721;55.894;-3.052;2024-02-21T02:54:24;100320.04;;;9.08;39.50
80397;BME280;69721;55.894;-3.052;2024-02-21T02:56:50;100301.61;;;8.65;40.04
80397;BME280;69721;55.894;-3.052;2024-02-21T02:59:15;100286.17;;;8.86;39.73
80397;BME280;69721;55.894;-3.052;2024-02-21T03:01:40;100281.97;;;8.96;39.28
80397;BME280;69721;55.894;-3.052;2024-02-21T03:04:06;100273.33;;;8.62;39.79
80397;BME280;69721;55.894;-3.052;2024-02-21T03:06:32;100264.20;;;8.23;40.14
80397;BME280;69721;55.894;-3.052;2024-02-21T03:08:57;100249.66;;;7.94;40.37
80397;BME280;69721;55.894;-3.052;2024-02-21T03:11:22;100234.26;;;6.86;41.41
80397;BME280;69721;55.894;-3.052;2024-02-21T03:13:49;100225.98;;;8.40;40.56
80397;BME280;69721;55.894;-3.052;2024-02-21T03:16:18;100202.84;;;8.96;39.67
80397;BME280;69721;55.894;-3.052;2024-02-21T03:18:40;100181.68;;;8.81;39.56
80397;BME280;69721;55.894;-3.052;2024-02-21T03:21:06;100170.50;;;8.48;39.57
80397;BME280;69721;55.894;-3.052;2024-02-21T03:23:31;100157.37;;;9.15;38.83
80397;BME280;69721;55.894;-3.052;2024-02-21T03:25:57;100145.93;;;8.54;39.52
80397;BME280;69721;55.894;-3.052;2024-02-21T03:28:22;100140.67;;;9.02;39.36
80397;BME280;69721;55.894;-3.052;2024-02-21T03:30:48;100132.71;;;8.86;39.83
80397;BME280;69721;55.894;-3.052;2024-02-21T03:33:13;100124.63;;;8.40;39.97
80397;BME280;69721;55.894;-3.052;2024-02-21T03:35:39;100133.39;;;8.29;40.76
80397;BME280;69721;55.894;-3.052;2024-02-21T03:38:05;100127.02;;;7.78;40.89
80397;BME280;69721;55.894;-3.052;2024-02-21T03:40:30;100127.35;;;8.03;40.89
80397;BME280;69721;55.894;-3.052;2024-02-21T03:42:56;100125.61;;;7.86;41.97
80397;BME280;69721;55.894;-3.052;2024-02-21T03:45:21;100121.14;;;8.30;41.10
80397;BME280;69721;55.894;-3.052;2024-02-21T03:47:47;100115.73;;;8.02;41.32
80397;BME280;69721;55.894;-3.052;2024-02-21T03:50:13;100100.64;;;7.12;42.06
80397;BME280;69721;55.894;-3.052;2024-02-21T03:52:38;100093.06;;;7.58;41.95
80397;BME280;69721;55.894;-3.052;2024-02-21T03:55:07;100088.23;;;7.30;42.31
80397;BME280;69721;55.894;-3.052;2024-02-21T03:57:29;100085.25;;;7.42;42.25
80397;BME280;69721;55.894;-3.052;2024-02-21T03:59:55;100075.70;;;8.17;40.93
80397;BME280;69721;55.894;-3.052;2024-02-21T04:02:20;100071.97;;;8.09;40.92
80397;BME280;69721;55.894;-3.052;2024-02-21T04:04:46;100067.96;;;8.16;40.08
80397;BME280;69721;55.894;-3.052;2024-02-21T04:07:12;100061.23;;;8.78;39.91
80397;BME280;69721;55.894;-3.052;2024-02-21T04:09:37;100046.37;;;8.38;39.86
80397;BME280;69721;55.894;-3.052;2024-02-21T04:12:03;100038.62;;;8.96;39.36
80397;BME280;69721;55.894;-3.052;2024-02-21T04:14:28;100052.92;;;8.36;41.17
80397;BME280;69721;55.894;-3.052;2024-02-21T04:16:54;100052.88;;;8.41;41.62
80397;BME280;69721;55.894;-3.052;2024-02-21T04:19:19;100043.66;;;7.39;44.53
80397;BME280;69721;55.894;-3.052;2024-02-21T04:21:44;100032.53;;;6.60;48.76
80397;BME280;69721;55.894;-3.052;2024-02-21T04:24:10;100032.08;;;6.12;50.44
80397;BME280;69721;55.894;-3.052;2024-02-21T04:26:35;100012.88;;;6.03;52.30
80397;BME280;69721;55.894;-3.052;2024-02-21T04:29:01;100005.78;;;5.87;52.44
80397;BME280;69721;55.894;-3.052;2024-02-21T04:31:27;99997.27;;;6.26;50.86
80397;BME280;69721;55.894;-3.052;2024-02-21T04:33:52;99988.28;;;6.91;49.41
80397;BME280;69721;55.894;-3.052;2024-02-21T04:36:18;99978.63;;;6.35;49.50
80397;BME280;69721;55.894;-3.052;2024-02-21T04:38:43;99978.51;;;6.42;49.71
80397;BME280;69721;55.894;-3.052;2024-02-21T04:41:09;99971.13;;;6.51;48.18
80397;BME280;69721;55.894;-3.052;2024-02-21T04:43:34;99962.78;;;6.79;47.56
80397;BME280;69721;55.894;-3.052;2024-02-21T04:46:00;99944.50;;;7.17;46.23
80397;BME280;69721;55.894;-3.052;2024-02-21T04:48:25;99937.43;;;7.06;46.16
80397;BME280;69721;55.894;-3.052;2024-02-21T04:50:51;99912.84;;;8.61;42.78
80397;BME280;69721;55.894;-3.052;2024-02-21T04:53:16;99905.83;;;9.18;41.45
80397;BME280;69721;55.894;-3.052;2024-02-21T04:55:42;99900.20;;;8.28;42.45
80397;BME280;69721;55.894;-3.052;2024-02-21T04:58:14;99882.60;;;9.65;40.87
80397;BME280;69721;55.894;-3.052;2024-02-21T05:00:33;99850.38;;;9.26;40.10
80397;BME280;69721;55.894;-3.052;2024-02-21T05:02:58;99838.73;;;9.15;39.81
80397;BME280;69721;55.894;-3.052;2024-02-21T05:05:24;99844.07;;;8.81;40.44
80397;BME280;69721;55.894;-3.052;2024-02-21T05:07:49;99845.98;;;8.70;40.53
80397;BME280;69721;55.894;-3.052;2024-02-21T05:10:14;99833.82;;;7.93;41.84
80397;BME280;69721;55.894;-3.052;2024-02-21T05:12:40;99822.96;;;7.70;43.07
80397;BME280;69721;55.894;-3.052;2024-02-21T05:15:06;99799.43;;;7.91;42.86
80397;BME280;69721;55.894;-3.052;2024-02-21T05:17:31;99774.94;;;7.72;43.07
80397;BME280;69721;55.894;-3.052;2024-02-21T05:19:56;99752.90;;;7.12;44.25
80397;BME280;69721;55.894;-3.052;2024-02-21T05:22:22;99758.75;;;6.33;46.54
80397;BME280;69721;55.894;-3.052;2024-02-21T05:24:47;99760.27;;;6.87;45.34
80397;BME280;69721;55.894;-3.052;2024-02-21T05:27:13;99767.86;;;6.64;46.91
80397;BME280;69721;55.894;-3.052;2024-02-21T05:29:39;99758.80;;;7.13;44.81
80397;BME280;69721;55.894;-3.052;2024-02-21T05:32:05;99749.00;;;8.54;43.17
80397;BME280;69721;55.894;-3.052;2024-02-21T05:34:30;99748.55;;;8.42;43.23
80397;BME280;69721;55.894;-3.052;2024-02-21T05:36:56;99734.38;;;8.37;43.94
80397;BME280;69721;55.894;-3.052;2024-02-21T05:39:22;99732.20;;;8.63;43.29
80397;BME280;69721;55.894;-3.052;2024-02-21T05:41:47;99720.12;;;9.33;41.89
80397;BME280;69721;55.894;-3.052;2024-02-21T05:44:13;99708.43;;;10.02;40.79
80397;BME280;69721;55.894;-3.052;2024-02-21T05:46:38;99704.41;;;10.26;40.08
80397;BME280;69721;55.894;-3.052;2024-02-21T05:49:04;99694.46;;;9.34;41.46
80397;BME280;69721;55.894;-3.052;2024-02-21T05:51:32;99680.34;;;9.62;41.63
80397;BME280;69721;55.894;-3.052;2024-02-21T05:53:56;99662.26;;;7.89;44.58
80397;BME280;69721;55.894;-3.052;2024-02-21T05:56:21;99649.44;;;8.81;43.90
80397;BME280;69721;55.894;-3.052;2024-02-21T05:58:46;99634.26;;;8.75;45.28
80397;BME280;69721;55.894;-3.052;2024-02-21T06:01:12;99631.71;;;8.52;46.04
80397;BME280;69721;55.894;-3.052;2024-02-21T06:03:37;99622.37;;;8.80;46.48
80397;BME280;69721;55.894;-3.052;2024-02-21T06:06:03;99613.93;;;8.86;47.31
80397;BME280;69721;55.894;-3.052;2024-02-21T06:08:28;99606.78;;;8.86;47.29
80397;BME280;69721;55.894;-3.052;2024-02-21T06:10:54;99591.19;;;7.26;54.43
80397;BME280;69721;55.894;-3.052;2024-02-21T06:13:19;99584.53;;;7.44;55.33
80397;BME280;69721;55.894;-3.052;2024-02-21T06:15:45;99569.93;;;8.42;52.46
80397;BME280;69721;55.894;-3.052;2024-02-21T06:18:10;99560.39;;;7.69;53.93
80397;BME280;69721;55.894;-3.052;2024-02-21T06:20:36;99546.94;;;8.37;53.20
80397;BME280;69721;55.894;-3.052;2024-02-21T06:23:02;99536.81;;;7.43;55.01
80397;BME280;69721;55.894;-3.052;2024-02-21T06:25:27;99526.68;;;7.73;55.10
80397;BME280;69721;55.894;-3.052;2024-02-21T06:27:53;99512.99;;;6.76;57.15
80397;BME280;69721;55.894;-3.052;2024-02-21T06:30:18;99505.58;;;7.32;56.29
80397;BME280;69721;55.894;-3.052;2024-02-21T06:32:44;99493.95;;;7.49;55.28
80397;BME280;69721;55.894;-3.052;2024-02-21T06:35:09;99486.52;;;6.86;56.84
80397;BME280;69721;55.894;-3.052;2024-02-21T06:37:35;99478.51;;;7.08;56.56
80397;BME280;69721;55.894;-3.052;2024-02-21T06:40:00;99466.32;;;6.88;57.41
80397;BME280;69721;55.894;-3.052;2024-02-21T06:42:26;99451.87;;;6.71;57.76
80397;BME280;69721;55.894;-3.052;2024-02-21T06:44:52;99445.70;;;5.46;60.61
80397;BME280;69721;55.894;-3.052;2024-02-21T06:47:17;99435.35;;;6.09;59.13
80397;BME280;69721;55.894;-3.052;2024-02-21T06:49:42;99431.02;;;5.86;59.62
80397;BME280;69721;55.894;-3.052;2024-02-21T06:52:08;99422.51;;;6.69;58.04
80397;BME280;69721;55.894;-3.052;2024-02-21T06:54:33;99417.12;;;6.20;59.43
80397;BME280;69721;55.894;-3.052;2024-02-21T06:56:59;99410.39;;;6.56;57.97
80397;BME280;69721;55.894;-3.052;2024-02-21T06:59:24;99400.50;;;7.51;55.83
80397;BME280;69721;55.894;-3.052;2024-02-21T07:01:54;99395.86;;;6.98;57.76
80397;BME280;69721;55.894;-3.052;2024-02-21T07:04:16;99380.82;;;5.60;60.04
80397;BME280;69721;55.894;-3.052;2024-02-21T07:06:41;99373.24;;;6.30;60.19
80397;BME280;69721;55.894;-3.052;2024-02-21T07:09:07;99363.49;;;6.40;59.65
80397;BME280;69721;55.894;-3.052;2024-02-21T07:11:32;99350.19;;;5.50;60.86
80397;BME280;69721;55.894;-3.052;2024-02-21T07:13:58;99329.86;;;6.42;59.68
80397;BME280;69721;55.894;-3.052;2024-02-21T07:16:23;99317.81;;;6.23;59.51
80397;BME280;69721;55.894;-3.052;2024-02-21T07:18:49;99293.91;;;6.51;59.33
80397;BME280;69721;55.894;-3.052;2024-02-21T07:21:15;99276.15;;;6.69;57.83
80397;BME280;69721;55.894;-3.052;2024-02-21T07:23:41;99259.92;;;7.26;57.40
80397;BME280;69721;55.894;-3.052;2024-02-21T07:26:06;99246.67;;;7.79;56.59
80397;BME280;69721;55.894;-3.052;2024-02-21T07:28:31;99229.44;;;6.75;58.63
80397;BME280;69721;55.894;-3.052;2024-02-21T07:30:59;99219.82;;;7.14;57.91
80397;BME280;69721;55.894;-3.052;2024-02-21T07:33:22;99206.21;;;6.43;60.23
80397;BME280;69721;55.894;-3.052;2024-02-21T07:35:48;99193.33;;;5.54;62.41
80397;BME280;69721;55.894;-3.052;2024-02-21T07:38:13;99182.03;;;7.18;60.08
80397;BME280;69721;55.894;-3.052;2024-02-21T07:40:39;99166.41;;;6.91;60.51
80397;BME280;69721;55.894;-3.052;2024-02-21T07:43:04;99154.85;;;7.07;59.55
80397;BME280;69721;55.894;-3.052;2024-02-21T07:45:30;99147.03;;;6.60;60.13
80397;BME280;69721;55.894;-3.052;2024-02-21T07:47:55;99138.66;;;5.87;62.19
80397;BME280;69721;55.894;-3.052;2024-02-21T07:50:21;99131.16;;;5.99;64.15
80397;BME280;69721;55.894;-3.052;2024-02-21T07:52:46;99121.95;;;6.38;63.74
80397;BME280;69721;55.894;-3.052;2024-02-21T07:55:12;99105.13;;;5.73;65.10
80397;BME280;69721;55.894;-3.052;2024-02-21T07:57:38;99098.17;;;6.09;62.90
80397;BME280;69721;55.894;-3.052;2024-02-21T08:00:05;99083.93;;;7.47;60.80
80397;BME280;69721;55.894;-3.052;2024-02-21T08:02:30;99068.99;;;7.45;61.41
80397;BME280;69721;55.894;-3.052;2024-02-21T08:04:55;99062.05;;;5.71;65.77
80397;BME280;69721;55.894;-3.052;2024-02-21T08:07:21;99054.51;;;6.63;64.12
80397;BME280;69721;55.894;-3.052;2024-02-21T08:09:46;99036.51;;;7.19;62.86
80397;BME280;69721;55.894;-3.052;2024-02-21T08:12:12;99033.64;;;7.53;61.61
80397;BME280;69721;55.894;-3.052;2024-02-21T08:14:37;99026.72;;;7.25;63.15
80397;BME280;69721;55.894;-3.052;2024-02-21T08:17:03;99011.46;;;7.00;63.60
80397;BME280;69721;55.894;-3.052;2024-02-21T08:19:29;98992.63;;;7.64;62.43
80397;BME280;69721;55.894;-3.052;2024-02-21T08:21:55;98984.90;;;8.00;61.41
80397;BME280;69721;55.894;-3.052;2024-02-21T08:24:20;98969.21;;;6.54;64.72
80397;BME280;69721;55.894;-3.052;2024-02-21T08:26:46;98960.23;;;6.55;65.92
80397;BME280;69721;55.894;-3.052;2024-02-21T08:29:12;98954.09;;;6.31;66.66
80397;BME280;69721;55.894;-3.052;2024-02-21T08:31:37;98930.87;;;6.28;66.66
80397;BME280;69721;55.894;-3.052;2024-02-21T08:34:03;98910.34;;;7.80;62.96
80397;BME280;69721;55.894;-3.052;2024-02-21T08:36:28;98884.36;;;6.70;65.36
80397;BME280;69721;55.894;-3.052;2024-02-21T08:38:54;98882.13;;;7.35;63.84
80397;BME280;69721;55.894;-3.052;2024-02-21T08:41:19;98875.31;;;6.35;67.85
80397;BME280;69721;55.894;-3.052;2024-02-21T08:43:45;98866.43;;;6.75;67.91
80397;BME280;69721;55.894;-3.052;2024-02-21T08:46:10;98847.01;;;6.55;68.10
80397;BME280;69721;55.894;-3.052;2024-02-21T08:48:36;98841.41;;;6.87;67.81
80397;BME280;69721;55.894;-3.052;2024-02-21T08:51:01;98836.73;;;6.44;68.35
80397;BME280;69721;55.894;-3.052;2024-02-21T08:53:27;98831.38;;;6.46;68.77
80397;BME280;69721;55.894;-3.052;2024-02-21T08:55:52;98823.68;;;7.43;65.38
80397;BME280;69721;55.894;-3.052;2024-02-21T08:58:17;98810.92;;;7.37;66.81
80397;BME280;69721;55.894;-3.052;2024-02-21T09:00:43;98800.51;;;7.13;66.59
80397;BME280;69721;55.894;-3.052;2024-02-21T09:03:08;98787.99;;;7.21;67.36
80397;BME280;69721;55.894;-3.052;2024-02-21T09:05:34;98776.81;;;7.46;67.63
80397;BME280;69721;55.894;-3.052;2024-02-21T09:07:59;98766.42;;;7.48;67.61
80397;BME280;69721;55.894;-3.052;2024-02-21T09:10:25;98759.28;;;7.39;66.71
80397;BME280;69721;55.894;-3.052;2024-02-21T09:12:50;98754.73;;;8.56;64.10
80397;BME280;69721;55.894;-3.052;2024-02-21T09:15:16;98744.03;;;8.38;65.13
80397;BME280;69721;55.894;-3.052;2024-02-21T09:17:41;98740.60;;;8.48;64.76
80397;BME280;69721;55.894;-3.052;2024-02-21T09:20:08;98730.61;;;8.64;64.31
80397;BME280;69721;55.894;-3.052;2024-02-21T09:22:32;98723.27;;;7.90;66.34
80397;BME280;69721;55.894;-3.052;2024-02-21T09:24:58;98708.62;;;8.55;66.04
80397;BME280;69721;55.894;-3.052;2024-02-21T09:27:23;98705.59;;;7.71;67.33
80397;BME280;69721;55.894;-3.052;2024-02-21T09:29:49;98689.20;;;7.99;67.43
80397;BME280;69721;55.894;-3.052;2024-02-21T09:32:14;98683.75;;;8.35;65.55
80397;BME280;69721;55.894;-3.052;2024-02-21T09:34:40;98672.94;;;7.76;68.55
80397;BME280;69721;55.894;-3.052;2024-02-21T09:37:05;98664.04;;;8.80;65.61
80397;BME280;69721;55.894;-3.052;2024-02-21T09:39:31;98657.64;;;8.34;66.25
80397;BME280;69721;55.894;-3.052;2024-02-21T09:41:59;98650.32;;;8.29;65.85
80397;BME280;69721;55.894;-3.052;2024-02-21T09:44:22;98631.82;;;8.11;68.18
80397;BME280;69721;55.894;-3.052;2024-02-21T09:46:55;98620.65;;;7.88;67.92
80397;BME280;69721;55.894;-3.052;2024-02-21T09:49:23;98621.50;;;7.98;68.04
80397;BME280;69721;55.894;-3.052;2024-02-21T09:51:40;98599.19;;;7.44;69.93
80397;BME280;69721;55.894;-3.052;2024-02-21T09:54:04;98601.24;;;7.69;68.91
80397;BME280;69721;55.894;-3.052;2024-02-21T09:56:29;98587.40;;;8.31;68.32
80397;BME280;69721;55.894;-3.052;2024-02-21T09:58:56;98577.70;;;7.88;68.57
80397;BME280;69721;55.894;-3.052;2024-02-21T10:01:21;98562.38;;;8.20;67.83
80397;BME280;69721;55.894;-3.052;2024-02-21T10:03:46;98544.95;;;9.30;66.18
80397;BME280;69721;55.894;-3.052;2024-02-21T10:06:11;98538.52;;;8.49;67.43
80397;BME280;69721;55.894;-3.052;2024-02-21T10:08:37;98524.91;;;8.56;67.45
80397;BME280;69721;55.894;-3.052;2024-02-21T10:11:03;98511.57;;;8.25;67.51
80397;BME280;69721;55.894;-3.052;2024-02-21T10:13:29;98501.48;;;8.13;67.93
80397;BME280;69721;55.894;-3.052;2024-02-21T10:16:03;98500.28;;;8.02;69.52
80397;BME280;69721;55.894;-3.052;2024-02-21T10:18:19;98488.74;;;8.06;70.42
80397;BME280;69721;55.894;-3.052;2024-02-21T10:20:44;98491.74;;;7.79;70.93
80397;BME280;69721;55.894;-3.052;2024-02-21T10:23:10;98486.20;;;8.00;71.19
80397;BME280;69721;55.894;-3.052;2024-02-21T10:25:36;98480.22;;;8.22;69.50
80397;BME280;69721;55.894;-3.052;2024-02-21T10:28:02;98466.24;;;8.02;70.82
80397;BME280;69721;55.894;-3.052;2024-02-21T10:30:26;98463.99;;;8.19;70.56
80397;BME280;69721;55.894;-3.052;2024-02-21T10:32:53;98463.63;;;8.04;71.80
80397;BME280;69721;55.894;-3.052;2024-02-21T10:35:26;98443.74;;;8.00;70.68
80397;BME280;69721;55.894;-3.052;2024-02-21T10:37:43;98444.48;;;8.48;68.17
80397;BME280;69721;55.894;-3.052;2024-02-21T10:40:09;98424.75;;;8.20;68.06
80397;BME280;69721;55.894;-3.052;2024-02-21T10:42:36;98421.31;;;8.20;69.37
80397;BME280;69721;55.894;-3.052;2024-02-21T10:45:05;98422.28;;;9.14;66.25
80397;BME280;69721;55.894;-3.052;2024-02-21T10:47:25;98413.68;;;8.39;68.88
80397;BME280;69721;55.894;-3.052;2024-02-21T10:49:57;98412.55;;;8.54;67.69
80397;BME280;69721;55.894;-3.052;2024-02-21T10:52:22;98398.38;;;9.41;64.56
80397;BME280;69721;55.894;-3.052;2024-02-21T10:54:45;98401.77;;;9.36;66.54
80397;BME280;69721;55.894;-3.052;2024-02-21T10:57:07;98389.38;;;8.72;67.72
80397;BME280;69721;55.894;-3.052;2024-02-21T10:59:32;98379.69;;;9.64;64.13
80397;BME280;69721;55.894;-3.052;2024-02-21T11:01:58;98372.57;;;9.37;65.58
80397;BME280;69721;55.894;-3.052;2024-02-21T11:04:25;98368.99;;;9.41;65.53
80397;BME280;69721;55.894;-3.052;2024-02-21T11:06:49;98358.37;;;9.18;66.26
80397;BME280;69721;55.894;-3.052;2024-02-21T11:09:14;98358.35;;;8.82;65.89
80397;BME280;69721;55.894;-3.052;2024-02-21T11:11:41;98347.13;;;9.67;65.35
80397;BME280;69721;55.894;-3.052;2024-02-21T11:14:06;98345.91;;;10.91;61.73
80397;BME280;69721;55.894;-3.052;2024-02-21T11:16:35;98342.12;;;10.47;62.94
80397;BME280;69721;55.894;-3.052;2024-02-21T11:19:04;98333.71;;;9.70;63.61
80397;BME280;69721;55.894;-3.052;2024-02-21T11:21:22;98333.52;;;9.63;64.36
80397;BME280;69721;55.894;-3.052;2024-02-21T11:23:54;98329.04;;;10.21;62.61
80397;BME280;69721;55.894;-3.052;2024-02-21T11:26:18;98323.24;;;10.92;61.33
80397;BME280;69721;55.894;-3.052;2024-02-21T11:28:37;98320.70;;;9.90;62.99
80397;BME280;69721;55.894;-3.052;2024-02-21T11:31:10;98316.03;;;10.13;62.38
80397;BME280;69721;55.894;-3.052;2024-02-21T11:33:28;98308.33;;;10.21;61.58
80397;BME280;69721;55.894;-3.052;2024-02-21T11:35:53;98306.16;;;9.76;62.60
80397;BME280;69721;55.894;-3.052;2024-02-21T11:38:19;98300.77;;;10.51;61.05
80397;BME280;69721;55.894;-3.052;2024-02-21T11:40:46;98289.84;;;11.05;61.89
80397;BME280;69721;55.894;-3.052;2024-02-21T11:43:10;98285.17;;;10.49;61.21
80397;BME280;69721;55.894;-3.052;2024-02-21T11:45:35;98281.41;;;10.40;62.30
80397;BME280;69721;55.894;-3.052;2024-02-21T11:48:01;98270.90;;;10.85;60.09
80397;BME280;69721;55.894;-3.052;2024-02-21T11:50:26;98284.61;;;10.45;62.54
80397;BME280;69721;55.894;-3.052;2024-02-21T11:52:54;98265.31;;;10.57;61.79
80397;BME280;69721;55.894;-3.052;2024-02-21T11:55:17;98255.06;;;10.93;60.48
80397;BME280;69721;55.894;-3.052;2024-02-21T11:57:44;98255.39;;;10.88;60.30
80397;BME280;69721;55.894;-3.052;2024-02-21T12:00:16;98255.57;;;11.34;59.24
80397;BME280;69721;55.894;-3.052;2024-02-21T12:02:35;98245.47;;;11.37;59.37
80397;BME280;69721;55.894;-3.052;2024-02-21T12:05:00;98241.86;;;10.82;60.37
80397;BME280;69721;55.894;-3.052;2024-02-21T12:07:25;98238.52;;;11.80;58.42
80397;BME280;69721;55.894;-3.052;2024-02-21T12:09:52;98226.85;;;11.42;58.08
80397;BME280;69721;55.894;-3.052;2024-02-21T12:12:20;98213.67;;;11.75;57.91
80397;BME280;69721;55.894;-3.052;2024-02-21T12:14:42;98216.62;;;11.63;58.56
80397;BME280;69721;55.894;-3.052;2024-02-21T12:17:07;98201.64;;;13.07;53.66
80397;BME280;69721;55.894;-3.052;2024-02-21T12:19:33;98203.81;;;13.18;54.00
80397;BME280;69721;55.894;-3.052;2024-02-21T12:21:59;98202.42;;;12.62;54.45
80397;BME280;69721;55.894;-3.052;2024-02-21T12:24:25;98190.62;;;12.96;54.20
80397;BME280;69721;55.894;-3.052;2024-02-21T12:26:49;98188.00;;;12.77;54.22
80397;BME280;69721;55.894;-3.052;2024-02-21T12:29:15;98179.75;;;12.53;55.60
80397;BME280;69721;55.894;-3.052;2024-02-21T12:31:40;98178.22;;;12.46;54.94
80397;BME280;69721;55.894;-3.052;2024-02-21T12:34:07;98165.93;;;12.10;55.62
80397;BME280;69721;55.894;-3.052;2024-02-21T12:36:33;98155.58;;;12.04;56.47
80397;BME280;69721;55.894;-3.052;2024-02-21T12:38:58;98148.23;;;12.48;55.41
80397;BME280;69721;55.894;-3.052;2024-02-21T12:41:23;98151.22;;;11.63;57.37
80397;BME280;69721;55.894;-3.052;2024-02-21T12:43:49;98139.35;;;11.75;56.20
80397;BME280;69721;55.894;-3.052;2024-02-21T12:46:14;98126.56;;;11.69;57.01